Pagina principale
METAR-TAF:

METAR-TAF

Aeroporti :

Iqaluit, Nunavut, Canada

latitudine: 63-45N, longitudine: 068-33W, altezza: 34 m

Osservazione

Il bollettino è stato emesso 17 minuti fa, alle 22:00 UTC
Vento 3 kt da sud-est
Temperature 7°C
Umidità 66%
Pressione 1006 hPa
Visibilità: 48.3 km
Nubi sparse ad un'altezza di 23000 ft

METAR: CYFB 172200Z 14003KT 30SM SCT230 07/01 A2971 RMK CI3 SLP064

Ora: 18:17 (22:17 UTC)

Previsione

Il bollettino è stato emesso 4 ore e 39 minuti fa, alle 17:38 UTC
Previsione valida dal 17 alle 18 UTC al 18 alle 18 UTC
Vento 3 kt da direzioni variabili
Visibilità: 10 km
Nubi sparse ad un'altezza di 23000 ft

TAF: CYFB 171738Z 1718/1818 VRB03KT P6SM SCT230 RMK NXT FCST BY 180000Z

Osservazioni e previsioni meteorologiche di più di 4000 aeroporti (messaggi METAR e TAF).

Le stazioni disponibili sono rappresentate dai dischi gialli e rossi sulla carta.

Puntare il mouse per vedere il nome della stazione.

Clicca sopra per visualizzare le osservazioni e previsioni meteorologiche.

Per cambiare la mappa : fare clic sui pulsanti verdi con una croce nera per ingrandire, il pulsante verde con un trattino per diminuire, o sulla freccia verde per le mappe adiacenti.


METAR-TAF: